Time;durP1;ratioP1;P1;durP2;ratioP2;P2;SDS_P1;SDS_P2;PMS_P1;PMS_P2;Temp;Humidity;BMP_temperature;BMP_pressure;BME280_temperature;BME280_humidity;BME280_pressure;Samples;Min_cycle;Max_cycle;Signal;HPM_P1;HPM_P2
2023/07/28 00:00:54;;;;;;;7.55;5.60;;;;;;;-146.25;100.00;52313.44;2088314;28;38048;-82
2023/07/28 00:01:56;;;;;;;6.60;5.32;;;;;;;-146.25;100.00;52293.19;2088740;28;33861;-79
2023/07/28 00:02:58;;;;;;;6.28;5.15;;;;;;;-146.25;100.00;52293.19;2087979;28;32134;-81
2023/07/28 00:03:59;;;;;;;7.18;5.30;;;;;;;-146.25;100.00;52248.56;2088275;28;32681;-81
2023/07/28 00:05:01;;;;;;;9.43;5.05;;;;;;;-146.25;100.00;52313.44;2089500;28;20088;-81
2023/07/28 00:06:03;;;;;;;8.23;5.45;;;;;;;-146.25;100.00;52321.56;2088120;28;37063;-81
2023/07/28 00:07:05;;;;;;;7.57;5.68;;;;;;;-146.25;100.00;52313.44;2089147;28;31356;-81
2023/07/28 00:08:07;;;;;;;7.70;5.45;;;;;;;-146.25;100.00;52299.25;2087975;28;32259;-79
2023/07/28 00:09:09;;;;;;;12.13;5.07;;;;;;;-146.25;100.00;52274.94;2088168;28;33582;-80
2023/07/28 00:10:13;;;;;;;5.18;4.68;;;;;;;-146.25;100.00;52299.25;2089382;28;20041;-79
2023/07/28 00:11:16;;;;;;;9.77;5.10;;;;;;;-146.25;100.00;52299.25;2088623;28;37354;-79
2023/07/28 00:12:17;;;;;;;9.68;5.40;;;;;;;-146.25;100.00;52345.91;2088721;28;26223;-80
2023/07/28 00:13:20;;;;;;;10.73;5.60;;;;;;;-146.25;100.00;52315.47;2088758;28;20077;-81
2023/07/28 00:14:22;;;;;;;6.65;5.47;;;;;;;-146.25;100.00;52301.28;2088729;28;38728;-81
2023/07/28 00:15:24;;;;;;;8.75;5.32;;;;;;;-146.25;100.00;52309.41;2087604;28;39748;-81
2023/07/28 00:16:26;;;;;;;9.80;5.50;;;;;;;-146.25;100.00;52321.56;2088763;28;20041;-80
2023/07/28 00:17:28;;;;;;;10.27;6.80;;;;;;;-146.25;100.00;52309.41;2088069;28;34124;-81
2023/07/28 00:18:32;;;;;;;9.68;7.00;;;;;;;-146.25;100.00;52313.44;2088148;28;33374;-79
2023/07/28 00:19:33;;;;;;;9.07;6.00;;;;;;;-146.25;100.00;52309.41;2088408;28;33251;-79
2023/07/28 00:20:35;;;;;;;9.65;6.10;;;;;;;-146.25;100.00;52283.03;2088660;28;34355;-78
2023/07/28 00:21:37;;;;;;;11.23;7.38;;;;;;;-146.25;100.00;52289.13;2088430;28;34076;-81
2023/07/28 00:22:42;;;;;;;13.20;7.90;;;;;;;-146.25;100.00;52305.34;2088252;28;34006;-80
2023/07/28 00:23:43;;;;;;;8.07;6.10;;;;;;;-146.25;100.00;52317.50;2088080;28;34861;-80
2023/07/28 00:24:45;;;;;;;7.15;6.13;;;;;;;-146.25;100.00;52317.50;2088149;28;33609;-78
2023/07/28 00:25:51;;;;;;;9.93;7.15;;;;;;;-146.25;100.00;52329.66;2088372;28;20132;-78
2023/07/28 00:26:53;;;;;;;11.20;7.70;;;;;;;-146.25;100.00;52323.59;2087746;28;35905;-80
2023/07/28 00:27:55;;;;;;;11.23;7.38;;;;;;;-146.25;100.00;52307.38;2096648;28;25358;-80
2023/07/28 00:28:58;;;;;;;9.52;7.07;;;;;;;-146.25;100.00;52260.72;2088694;28;26648;-81
2023/07/28 00:30:00;;;;;;;8.35;6.90;;;;;;;-146.25;100.00;52319.53;2088332;28;28319;-79
2023/07/28 00:31:02;;;;;;;11.10;7.32;;;;;;;-146.25;100.00;52295.19;2072052;28;20895;-80
2023/07/28 00:32:05;;;;;;;10.43;7.53;;;;;;;-146.25;100.00;52299.25;2080551;28;20049;-80
2023/07/28 00:33:06;;;;;;;11.68;8.02;;;;;;;-146.25;100.00;52295.19;2088194;28;23562;-80
2023/07/28 00:34:08;;;;;;;10.25;7.70;;;;;;;-146.25;100.00;52341.84;2088307;28;26879;-80
2023/07/28 00:35:13;;;;;;;9.82;8.18;;;;;;;-146.25;100.00;52283.03;2088659;28;20092;-80
2023/07/28 00:36:15;;;;;;;9.82;7.57;;;;;;;-146.25;100.00;52281.00;2087870;28;20190;-80
2023/07/28 00:37:16;;;;;;;12.25;8.27;;;;;;;-146.25;100.00;52323.59;2087584;28;27964;-79
2023/07/28 00:38:19;;;;;;;12.68;7.72;;;;;;;-146.25;100.00;52315.47;2088886;28;20080;-80
2023/07/28 00:39:21;;;;;;;12.65;8.18;;;;;;;-146.25;100.00;52335.75;2089075;28;20815;-79
2023/07/28 00:40:22;;;;;;;14.77;8.48;;;;;;;-146.25;100.00;52266.81;2087896;28;34040;-81
2023/07/28 00:41:24;;;;;;;14.82;9.52;;;;;;;-146.25;100.00;52297.22;2079542;28;28729;-80
2023/07/28 00:42:26;;;;;;;13.02;8.75;;;;;;;-146.25;100.00;52309.41;2079951;28;33368;-80
2023/07/28 00:43:28;;;;;;;16.00;9.05;;;;;;;-146.25;100.00;52274.94;2071855;28;20808;-81
2023/07/28 00:44:29;;;;;;;18.08;10.43;;;;;;;-146.25;100.00;52323.59;2072379;28;23601;-80
2023/07/28 00:45:33;;;;;;;15.38;9.70;;;;;;;-146.25;100.00;52325.63;2079860;28;34433;-80
2023/07/28 00:46:35;;;;;;;15.40;10.45;;;;;;;-146.25;100.00;52285.06;2088658;28;20042;-80
2023/07/28 00:47:37;;;;;;;15.48;10.38;;;;;;;-146.25;100.00;52291.16;2087675;28;28465;-80
2023/07/28 00:48:40;;;;;;;17.77;11.05;;;;;;;-146.25;100.00;52323.59;2088229;28;24302;-80
2023/07/28 00:49:42;;;;;;;20.27;10.70;;;;;;;-146.25;100.00;52262.75;2087893;28;30750;-81
2023/07/28 00:50:48;;;;;;;20.00;10.50;;;;;;;-146.25;100.00;52311.44;2087726;28;31871;-82
2023/07/28 00:51:53;;;;;;;18.15;10.85;;;;;;;-146.25;100.00;52337.78;2087985;28;31184;-80
2023/07/28 00:52:55;;;;;;;19.52;11.70;;;;;;;-146.25;100.00;52291.16;2081074;28;20049;-81
2023/07/28 00:53:59;;;;;;;19.90;11.20;;;;;;;-146.25;100.00;52319.53;2071928;28;22415;-81
2023/07/28 00:55:02;;;;;;;17.95;12.05;;;;;;;-146.25;100.00;52258.72;2080664;28;20119;-81
2023/07/28 00:56:05;;;;;;;17.95;11.70;;;;;;;-146.25;100.00;52345.91;2080335;28;20236;-82
2023/07/28 00:57:07;;;;;;;19.50;11.93;;;;;;;-146.25;100.00;52301.28;2089051;28;26795;-83
2023/07/28 00:58:09;;;;;;;18.88;11.70;;;;;;;-146.25;100.00;52264.78;2087933;28;31457;-81
2023/07/28 00:59:11;;;;;;;21.30;13.02;;;;;;;-146.25;100.00;52313.44;2079696;28;29827;-82
2023/07/28 01:00:13;;;;;;;17.35;11.30;;;;;;;-146.25;100.00;52303.31;2071839;28;21469;-82
2023/07/28 01:01:15;;;;;;;19.92;12.57;;;;;;;-146.25;100.00;52295.19;2080431;28;21029;-82
2023/07/28 01:02:18;;;;;;;21.95;13.10;;;;;;;-146.25;100.00;52254.66;2096158;28;27436;-82
2023/07/28 01:03:21;;;;;;;17.60;11.95;;;;;;;-146.25;100.00;52337.78;2088990;28;20218;-81
2023/07/28 01:04:23;;;;;;;21.58;12.93;;;;;;;-146.25;100.00;52295.19;2071599;28;20126;-82
2023/07/28 01:05:44;;;;;;;17.40;11.95;;;;;;;-146.25;100.00;52281.00;2056216;28;20058;-80
2023/07/28 01:06:55;;;;;;;19.60;12.02;;;;;;;-146.25;100.00;52283.03;2073885;28;28049;-81
2023/07/28 01:08:25;;;;;;;22.50;12.82;;;;;;;-146.25;100.00;52307.38;2080914;28;28595;-81
2023/07/28 01:09:39;;;;;;;19.05;12.98;;;;;;;-146.25;100.00;52285.06;2085141;28;25406;-82
2023/07/28 01:10:42;;;;;;;19.80;12.82;;;;;;;-146.25;100.00;52307.38;2076774;28;20064;-82
2023/07/28 01:11:58;;;;;;;22.83;13.73;;;;;;;-146.25;100.00;52287.09;2073576;28;26136;-82
2023/07/28 01:13:00;;;;;;;23.58;13.52;;;;;;;-146.25;100.00;52307.38;2088227;28;29419;-82
2023/07/28 01:14:02;;;;;;;21.13;13.25;;;;;;;-146.25;100.00;52297.22;2088788;28;22170;-82
2023/07/28 01:15:04;;;;;;;25.88;14.73;;;;;;;-146.25;100.00;52266.81;2087640;28;28789;-83
2023/07/28 01:16:08;;;;;;;24.67;13.70;;;;;;;-146.25;100.00;52291.16;2080580;28;20149;-83
2023/07/28 01:17:10;;;;;;;29.65;14.63;;;;;;;-146.25;100.00;52329.66;2096336;28;20253;-83
2023/07/28 01:18:12;;;;;;;22.27;12.75;;;;;;;-146.25;100.00;52323.59;2079222;28;34786;-82
2023/07/28 01:19:18;;;;;;;24.35;14.18;;;;;;;-146.25;100.00;52287.09;2080437;28;21025;-82
2023/07/28 01:20:24;;;;;;;23.75;14.73;;;;;;;-146.25;100.00;52329.66;2079986;28;20049;-82
2023/07/28 01:21:31;;;;;;;27.70;14.85;;;;;;;-146.25;100.00;52343.88;2080568;28;20046;-82
2023/07/28 01:23:06;;;;;;;25.38;15.43;;;;;;;-146.25;100.00;52311.44;2072669;28;32888;-82
2023/07/28 01:24:28;;;;;;;27.23;15.95;;;;;;;-146.25;100.00;52323.59;2082223;28;20908;-82
2023/07/28 01:25:29;;;;;;;21.67;13.00;;;;;;;-146.25;100.00;52307.38;2081947;28;35049;-82
2023/07/28 01:26:39;;;;;;;24.23;15.00;;;;;;;-146.25;100.00;52327.66;2087826;28;20952;-81
2023/07/28 01:27:42;;;;;;;23.85;14.10;;;;;;;-146.25;100.00;52319.53;2080009;28;20084;-81
2023/07/28 01:28:45;;;;;;;21.67;13.05;;;;;;;-146.25;100.00;52289.13;2072681;28;20038;-82
2023/07/28 01:29:48;;;;;;;25.15;13.77;;;;;;;-146.25;100.00;52287.09;2079944;28;20054;-81
2023/07/28 01:30:49;;;;;;;24.38;13.68;;;;;;;-146.25;100.00;52281.00;2079650;28;20077;-81
2023/07/28 01:31:52;;;;;;;24.63;14.73;;;;;;;-146.25;100.00;52299.25;2079790;28;28892;-81
2023/07/28 01:32:55;;;;;;;26.27;14.50;;;;;;;-146.25;100.00;52287.09;2087347;28;24357;-80
2023/07/28 01:33:57;;;;;;;26.25;15.48;;;;;;;-146.25;100.00;52258.72;2096425;28;20123;-79
2023/07/28 01:34:59;;;;;;;26.38;15.50;;;;;;;-146.25;100.00;52329.66;2095561;28;20045;-79
2023/07/28 01:36:01;;;;;;;21.58;13.88;;;;;;;-146.25;100.00;52347.91;2087026;28;37046;-79
2023/07/28 01:37:03;;;;;;;30.50;15.43;;;;;;;-146.25;100.00;52317.50;2087783;28;28517;-79
2023/07/28 01:38:05;;;;;;;25.38;14.07;;;;;;;-146.25;100.00;52291.16;2079770;28;25962;-79
2023/07/28 01:39:07;;;;;;;25.92;14.82;;;;;;;-146.25;100.00;52333.72;2080071;28;20046;-79
2023/07/28 01:40:10;;;;;;;31.02;16.08;;;;;;;-146.25;100.00;52343.88;2087887;28;20802;-79
2023/07/28 01:41:11;;;;;;;30.45;16.25;;;;;;;-146.25;100.00;52311.44;2088704;28;20242;-77
2023/07/28 01:42:13;;;;;;;34.33;15.68;;;;;;;-146.25;100.00;52325.63;2079362;28;20063;-78
2023/07/28 01:43:15;;;;;;;29.33;15.73;;;;;;;-146.25;100.00;52287.09;2079968;28;27801;-80
2023/07/28 01:44:17;;;;;;;31.48;16.77;;;;;;;-146.25;100.00;52299.25;2087499;28;28211;-78
2023/07/28 01:45:20;;;;;;;39.67;15.68;;;;;;;-146.25;100.00;52295.19;2088246;28;29219;-80
2023/07/28 01:46:22;;;;;;;36.78;16.83;;;;;;;-146.25;100.00;52327.66;2087950;28;26188;-81
2023/07/28 01:47:25;;;;;;;36.40;16.50;;;;;;;-146.25;100.00;52311.44;2096064;28;20033;-79
2023/07/28 01:48:27;;;;;;;64.10;15.40;;;;;;;-146.25;100.00;52299.25;2087266;28;29769;-79
2023/07/28 01:49:28;;;;;;;37.45;15.60;;;;;;;-146.25;100.00;52283.03;2087337;28;20833;-78
2023/07/28 01:50:30;;;;;;;28.00;13.95;;;;;;;-146.25;100.00;52283.03;2087930;28;20264;-78
2023/07/28 01:51:32;;;;;;;31.15;14.32;;;;;;;-146.25;100.00;52270.88;2086567;28;34342;-77
2023/07/28 01:52:34;;;;;;;31.63;14.63;;;;;;;-146.25;100.00;52323.59;2096265;28;20239;-78
2023/07/28 01:53:36;;;;;;;27.27;14.52;;;;;;;-146.25;100.00;52319.53;2096214;28;20227;-80
2023/07/28 01:54:40;;;;;;;25.92;13.00;;;;;;;-146.25;100.00;52347.91;2087288;28;32176;-78
2023/07/28 01:55:42;;;;;;;25.90;12.63;;;;;;;-146.25;100.00;52295.19;2087822;28;21465;-79
2023/07/28 01:56:44;;;;;;;25.77;12.07;;;;;;;-146.25;100.00;52297.22;2087361;28;20037;-79
2023/07/28 01:57:57;;;;;;;25.10;11.85;;;;;;;-146.25;100.00;52311.44;2079678;28;20180;-80
2023/07/28 01:58:59;;;;;;;26.63;11.68;;;;;;;-146.25;100.00;52331.69;2081116;28;20065;-80
2023/07/28 02:00:03;;;;;;;26.77;13.10;;;;;;;-146.25;100.00;52327.66;2079513;28;20042;-80
2023/07/28 02:01:16;;;;;;;26.08;12.10;;;;;;;-146.25;100.00;52315.47;2086835;28;20041;-80
2023/07/28 02:02:18;;;;;;;28.13;12.50;;;;;;;-146.25;100.00;52339.81;2095957;28;20040;-79
2023/07/28 02:03:20;;;;;;;23.60;10.63;;;;;;;-146.25;100.00;52343.88;2087590;28;20037;-79
2023/07/28 02:04:26;;;;;;;34.67;12.52;;;;;;;-146.25;100.00;52327.66;2087786;28;24815;-78
2023/07/28 02:05:28;;;;;;;50.30;12.70;;;;;;;-146.25;100.00;52315.47;2096203;28;20037;-79
2023/07/28 02:06:31;;;;;;;45.17;13.50;;;;;;;-146.25;100.00;52315.47;2096035;28;21839;-78
2023/07/28 02:07:33;;;;;;;29.67;12.00;;;;;;;-146.25;100.00;52325.63;2087577;28;20034;-77
2023/07/28 02:08:35;;;;;;;23.65;11.20;;;;;;;-146.25;100.00;52337.78;2087371;28;26932;-78
2023/07/28 02:09:37;;;;;;;32.63;11.27;;;;;;;-146.25;100.00;52333.72;2095929;28;20049;-80
2023/07/28 02:10:41;;;;;;;29.30;11.43;;;;;;;-146.25;100.00;52305.34;2095614;28;28112;-79
2023/07/28 02:11:44;;;;;;;34.60;11.18;;;;;;;-146.25;100.00;52303.31;2087689;28;20180;-79
2023/07/28 02:12:46;;;;;;;27.13;11.25;;;;;;;-146.25;100.00;52331.69;2079718;28;20884;-80
2023/07/28 02:13:48;;;;;;;27.42;11.50;;;;;;;-146.25;100.00;52329.66;2079234;28;25491;-79
2023/07/28 02:14:51;;;;;;;27.10;9.50;;;;;;;-146.25;100.00;52323.59;2087741;28;20060;-80
2023/07/28 02:15:53;;;;;;;31.40;11.93;;;;;;;-146.25;100.00;52301.28;2087428;28;20158;-80
2023/07/28 02:16:55;;;;;;;26.13;10.93;;;;;;;-146.25;100.00;52335.75;2078777;28;28405;-81
2023/07/28 02:17:56;;;;;;;23.65;11.55;;;;;;;-146.25;100.00;52315.47;2087322;28;28838;-80
2023/07/28 02:18:58;;;;;;;25.13;11.57;;;;;;;-146.25;100.00;52309.41;2087782;28;23680;-80
2023/07/28 02:20:03;;;;;;;27.00;11.90;;;;;;;-146.25;100.00;52323.59;2088468;28;21050;-80
2023/07/28 02:21:04;;;;;;;25.75;11.48;;;;;;;-146.25;100.00;52343.88;2086613;28;28169;-82
2023/07/28 02:22:06;;;;;;;26.52;12.23;;;;;;;-146.25;100.00;52309.41;2079854;28;20169;-81
2023/07/28 02:23:08;;;;;;;26.77;11.35;;;;;;;-146.25;100.00;52291.16;2087460;28;20057;-82
2023/07/28 02:24:10;;;;;;;27.50;12.55;;;;;;;-146.25;100.00;52325.63;2079383;28;20911;-81
2023/07/28 02:25:12;;;;;;;31.52;12.60;;;;;;;-146.25;100.00;52299.25;2087527;28;24807;-83
2023/07/28 02:26:14;;;;;;;30.63;13.02;;;;;;;-146.25;100.00;52274.94;2087709;28;20088;-79
2023/07/28 02:27:16;;;;;;;34.83;13.98;;;;;;;-146.25;100.00;52309.41;2088139;28;20863;-80
2023/07/28 02:28:17;;;;;;;32.08;14.50;;;;;;;-146.25;100.00;52327.66;2087666;28;30381;-79
2023/07/28 02:29:21;;;;;;;33.88;14.57;;;;;;;-146.25;100.00;52325.63;2078680;28;32179;-78
2023/07/28 02:30:23;;;;;;;33.15;14.98;;;;;;;-146.25;100.00;52337.78;2087130;28;28564;-78
2023/07/28 02:31:25;;;;;;;37.47;15.52;;;;;;;-146.25;100.00;52329.66;2088041;28;20898;-79
2023/07/28 02:32:30;;;;;;;39.28;17.00;;;;;;;-146.25;100.00;52289.13;2088001;28;27734;-80
2023/07/28 02:33:35;;;;;;;37.80;15.32;;;;;;;-146.25;100.00;52274.94;2087681;28;20859;-82
2023/07/28 02:34:39;;;;;;;32.78;15.45;;;;;;;-146.25;100.00;52333.72;2087299;28;35245;-84
2023/07/28 02:35:41;;;;;;;35.78;16.13;;;;;;;-146.25;100.00;52299.25;2088170;28;20037;-82
2023/07/28 02:36:43;;;;;;;33.78;15.23;;;;;;;-146.25;100.00;52307.38;2086734;28;28067;-81
2023/07/28 02:37:44;;;;;;;39.47;14.98;;;;;;;-146.25;100.00;52305.34;2087112;28;25684;-80
2023/07/28 02:38:46;;;;;;;44.38;16.13;;;;;;;-146.25;100.00;52325.63;2087117;28;35608;-80
2023/07/28 02:39:48;;;;;;;42.03;16.65;;;;;;;-146.25;100.00;52274.94;2087154;28;33482;-82
2023/07/28 02:40:50;;;;;;;39.72;17.20;;;;;;;-146.25;100.00;52317.50;2088058;28;30469;-80
2023/07/28 02:41:51;;;;;;;41.10;16.75;;;;;;;-146.25;100.00;52305.34;2088364;28;20073;-82
2023/07/28 02:42:53;;;;;;;34.33;15.10;;;;;;;-146.25;100.00;52315.47;2088478;28;20064;-83
2023/07/28 02:43:55;;;;;;;38.70;16.33;;;;;;;-146.25;100.00;52307.38;2087393;28;27545;-81
2023/07/28 02:44:57;;;;;;;44.20;18.08;;;;;;;-146.25;100.00;52366.16;2079698;28;20314;-82
2023/07/28 02:46:00;;;;;;;37.17;16.50;;;;;;;-146.25;100.00;52311.44;2079371;28;23817;-81
2023/07/28 02:47:02;;;;;;;35.05;15.68;;;;;;;-146.25;100.00;52307.38;2078939;28;36298;-81
2023/07/28 02:48:07;;;;;;;37.67;17.00;;;;;;;-146.25;100.00;52323.59;2087439;28;30128;-81
2023/07/28 02:49:09;;;;;;;40.35;16.77;;;;;;;-146.25;100.00;52309.41;2087459;28;20878;-79
2023/07/28 02:50:11;;;;;;;38.95;18.27;;;;;;;-146.25;100.00;52329.66;2079700;28;29397;-79
2023/07/28 02:51:13;;;;;;;47.45;17.55;;;;;;;-146.25;100.00;52319.53;2078518;28;30181;-81
2023/07/28 02:52:14;;;;;;;41.42;17.95;;;;;;;-146.25;100.00;52345.91;2086922;28;25968;-79
2023/07/28 02:53:16;;;;;;;41.70;17.52;;;;;;;-146.25;100.00;52335.75;2079147;28;28454;-81
2023/07/28 02:54:23;;;;;;;38.22;17.40;;;;;;;-146.25;100.00;52307.38;2079722;28;20886;-79
2023/07/28 02:55:25;;;;;;;46.83;17.52;;;;;;;-146.25;100.00;52303.31;2087311;28;20131;-79
2023/07/28 02:56:27;;;;;;;39.25;16.83;;;;;;;-146.25;100.00;52329.66;2078825;28;33089;-80
2023/07/28 02:57:29;;;;;;;45.35;17.52;;;;;;;-146.25;100.00;52297.22;2087439;28;20135;-79
2023/07/28 02:58:31;;;;;;;45.10;17.65;;;;;;;-146.25;100.00;52305.34;2095855;28;20041;-80
2023/07/28 02:59:32;;;;;;;49.97;19.05;;;;;;;-146.25;100.00;52349.94;2087411;28;20038;-79
2023/07/28 03:00:40;;;;;;;44.05;18.45;;;;;;;-146.25;100.00;52287.09;2079595;28;22301;-81
2023/07/28 03:01:43;;;;;;;44.50;18.33;;;;;;;-146.25;100.00;52313.44;2081554;28;20034;-81
2023/07/28 03:02:45;;;;;;;44.22;19.13;;;;;;;-146.25;100.00;52313.44;2088644;28;20914;-81
2023/07/28 03:03:47;;;;;;;39.30;17.73;;;;;;;-146.25;100.00;52319.53;2089015;28;20984;-81
2023/07/28 03:04:49;;;;;;;42.72;19.13;;;;;;;-146.25;100.00;52291.16;2089233;28;20151;-81
2023/07/28 03:05:53;;;;;;;49.33;19.67;;;;;;;-146.25;100.00;52311.44;2081069;28;20492;-81
2023/07/28 03:06:59;;;;;;;43.83;18.13;;;;;;;-146.25;100.00;52329.66;2089565;28;20048;-80
2023/07/28 03:08:01;;;;;;;41.35;18.40;;;;;;;-146.25;100.00;52287.09;2097220;28;20969;-80
2023/07/28 03:09:03;;;;;;;41.50;18.98;;;;;;;-146.25;100.00;52331.69;2088809;28;20081;-80
2023/07/28 03:10:16;;;;;;;42.92;17.77;;;;;;;-146.25;100.00;52339.81;2074119;28;20054;-80
2023/07/28 03:11:18;;;;;;;44.17;18.40;;;;;;;-146.25;100.00;52347.91;2082505;28;20030;-80
2023/07/28 03:12:24;;;;;;;46.00;18.48;;;;;;;-146.25;100.00;52303.31;2088877;28;20881;-80
2023/07/28 03:13:25;;;;;;;42.75;17.77;;;;;;;-146.25;100.00;52291.16;2081540;28;20049;-80
2023/07/28 03:14:28;;;;;;;44.15;18.38;;;;;;;-146.25;100.00;52313.44;2089095;28;20978;-81
2023/07/28 03:15:30;;;;;;;45.85;19.58;;;;;;;-146.25;100.00;52331.69;2088824;28;20080;-80
2023/07/28 03:16:32;;;;;;;45.47;18.35;;;;;;;-146.25;100.00;52299.25;2081119;28;20056;-80
2023/07/28 03:17:34;;;;;;;43.45;18.48;;;;;;;-146.25;100.00;52321.56;2079793;28;34629;-80
2023/07/28 03:18:36;;;;;;;37.88;17.45;;;;;;;-146.25;100.00;52319.53;2080619;28;22469;-79
2023/07/28 03:19:38;;;;;;;43.35;19.00;;;;;;;-146.25;100.00;52309.41;2080760;28;20089;-79
2023/07/28 03:20:39;;;;;;;48.92;19.48;;;;;;;-146.25;100.00;52307.38;2080490;28;21962;-79
2023/07/28 03:21:41;;;;;;;48.70;20.23;;;;;;;-146.25;100.00;52349.94;2080784;28;20053;-80
2023/07/28 03:22:43;;;;;;;42.10;19.08;;;;;;;-146.25;100.00;52349.94;2080519;28;20042;-79
2023/07/28 03:23:45;;;;;;;53.20;20.52;;;;;;;-146.25;100.00;52339.81;2071987;28;21324;-84
2023/07/28 03:24:49;;;;;;;46.83;20.60;;;;;;;-146.25;100.00;52325.63;2081046;28;20026;-82
2023/07/28 03:25:52;;;;;;;46.53;20.20;;;;;;;-146.25;100.00;52321.56;2088572;28;24282;-80
2023/07/28 03:26:54;;;;;;;45.38;20.38;;;;;;;-146.25;100.00;52307.38;2088689;28;20038;-81
2023/07/28 03:27:55;;;;;;;55.03;20.10;;;;;;;-146.25;100.00;52331.69;2088421;28;31369;-81
2023/07/28 03:28:57;;;;;;;48.60;19.83;;;;;;;-146.25;100.00;52291.16;2080498;28;20038;-81
2023/07/28 03:30:02;;;;;;;51.40;19.70;;;;;;;-146.25;100.00;52335.75;2080716;28;20057;-81
2023/07/28 03:31:03;;;;;;;45.03;19.65;;;;;;;-146.25;100.00;52299.25;2088798;28;20164;-82
2023/07/28 03:32:05;;;;;;;52.65;20.58;;;;;;;-146.25;100.00;52305.34;2088683;28;20178;-79
2023/07/28 03:33:07;;;;;;;50.28;20.08;;;;;;;-146.25;100.00;52335.75;2080191;28;25942;-80
2023/07/28 03:34:09;;;;;;;48.58;21.55;;;;;;;-146.25;100.00;52327.66;2080617;28;20046;-80
2023/07/28 03:35:11;;;;;;;38.78;17.08;;;;;;;-146.25;100.00;52289.13;2080534;28;29624;-81
2023/07/28 03:36:20;;;;;;;48.33;20.45;;;;;;;-146.25;100.00;52331.69;2080987;28;20050;-81
2023/07/28 03:37:22;;;;;;;55.50;21.05;;;;;;;-146.25;100.00;52323.59;2080259;28;32358;-82
2023/07/28 03:38:25;;;;;;;50.63;19.98;;;;;;;-146.25;100.00;52329.66;2080437;28;20831;-81
2023/07/28 03:39:26;;;;;;;49.83;20.45;;;;;;;-146.25;100.00;52343.88;2080537;28;20108;-81
2023/07/28 03:40:28;;;;;;;49.67;20.65;;;;;;;-146.25;100.00;52329.66;2081091;28;20954;-81
2023/07/28 03:41:33;;;;;;;60.28;22.17;;;;;;;-146.25;100.00;52311.44;2088630;28;20046;-77
2023/07/28 03:42:35;;;;;;;55.05;20.98;;;;;;;-146.25;100.00;52329.66;2080026;28;20807;-79
2023/07/28 03:43:37;;;;;;;53.50;20.70;;;;;;;-146.25;100.00;52329.66;2072444;28;20114;-78
2023/07/28 03:44:41;;;;;;;62.53;22.15;;;;;;;-146.25;100.00;52335.75;2080233;28;20791;-77
2023/07/28 03:45:43;;;;;;;58.33;21.27;;;;;;;-146.25;100.00;52347.91;2080652;28;20124;-77
2023/07/28 03:46:45;;;;;;;62.47;22.90;;;;;;;-146.25;100.00;52283.03;2080378;28;20041;-78
2023/07/28 03:47:46;;;;;;;59.97;21.92;;;;;;;-146.25;100.00;52327.66;2088478;28;27043;-79
2023/07/28 03:48:48;;;;;;;54.22;22.85;;;;;;;-146.25;100.00;52364.13;2088296;28;28491;-79
2023/07/28 03:49:50;;;;;;;58.08;21.65;;;;;;;-146.25;100.00;52345.91;2079763;28;27778;-81
2023/07/28 03:50:52;;;;;;;56.65;21.95;;;;;;;-146.25;100.00;52345.91;2081997;28;27465;-81
2023/07/28 03:51:54;;;;;;;57.42;21.48;;;;;;;-146.25;100.00;52319.53;2088227;28;20103;-81
2023/07/28 03:52:56;;;;;;;58.75;22.88;;;;;;;-146.25;100.00;52341.84;2080669;28;20049;-83
2023/07/28 03:53:57;;;;;;;59.58;22.60;;;;;;;-146.25;100.00;52345.91;2072081;28;28362;-82
2023/07/28 03:54:59;;;;;;;66.80;23.63;;;;;;;-146.25;100.00;52299.25;2080809;28;20141;-83
2023/07/28 03:56:03;;;;;;;62.42;22.70;;;;;;;-146.25;100.00;52305.34;2088783;28;20988;-83
2023/07/28 03:57:05;;;;;;;62.92;23.05;;;;;;;-146.25;100.00;52323.59;2088062;28;35194;-83
2023/07/28 03:58:07;;;;;;;58.83;22.25;;;;;;;-146.25;100.00;52323.59;2088914;28;34057;-81
2023/07/28 03:59:08;;;;;;;67.82;22.80;;;;;;;-146.25;100.00;52343.88;2088360;28;24264;-80
2023/07/28 04:00:11;;;;;;;67.88;21.95;;;;;;;-146.25;100.00;52315.47;2080080;28;20046;-82
2023/07/28 04:01:13;;;;;;;61.35;22.15;;;;;;;-146.25;100.00;52349.94;2087698;28;43558;-82
2023/07/28 04:02:15;;;;;;;56.00;21.60;;;;;;;-146.25;100.00;52339.81;2088554;28;20181;-82
2023/07/28 04:03:17;;;;;;;68.43;23.30;;;;;;;-146.25;100.00;52293.19;2088330;28;21101;-82
2023/07/28 04:04:22;;;;;;;75.28;23.70;;;;;;;-146.25;100.00;52323.59;2088889;28;20034;-81
2023/07/28 04:05:23;;;;;;;58.47;22.50;;;;;;;-146.25;100.00;52319.53;2088768;28;20151;-79
2023/07/28 04:06:45;;;;;;;58.13;22.30;;;;;;;-146.25;100.00;52323.59;2087297;28;33426;-79
2023/07/28 04:07:47;;;;;;;73.05;22.73;;;;;;;-146.25;100.00;52311.44;2083229;28;20030;-80
2023/07/28 04:08:49;;;;;;;57.58;21.25;;;;;;;-146.25;100.00;52287.09;2088811;28;20047;-81
2023/07/28 04:09:54;;;;;;;52.78;21.13;;;;;;;-146.25;100.00;52351.97;2096716;28;26041;-80
2023/07/28 04:10:58;;;;;;;65.63;22.35;;;;;;;-146.25;100.00;52337.78;2079794;28;21313;-77
2023/07/28 04:12:00;;;;;;;56.05;20.73;;;;;;;-146.25;100.00;52321.56;2079806;28;29836;-81
2023/07/28 04:13:01;;;;;;;49.97;21.63;;;;;;;-146.25;100.00;52313.44;2088414;28;33217;-81
2023/07/28 04:14:04;;;;;;;64.82;20.98;;;;;;;-146.25;100.00;52339.81;2089249;28;20943;-80
2023/07/28 04:15:07;;;;;;;60.53;20.88;;;;;;;-146.25;100.00;52333.72;2088501;28;20049;-79
2023/07/28 04:16:09;;;;;;;51.40;20.52;;;;;;;-146.25;100.00;52345.91;2087866;28;29172;-79
2023/07/28 04:17:11;;;;;;;65.90;22.85;;;;;;;-146.25;100.00;52358.06;2088665;28;20651;-79
2023/07/28 04:18:13;;;;;;;62.83;21.52;;;;;;;-146.25;100.00;52303.31;2088470;28;20135;-82
2023/07/28 04:19:15;;;;;;;56.10;22.50;;;;;;;-146.25;100.00;52335.75;2088733;28;20101;-83
2023/07/28 04:20:17;;;;;;;65.80;23.00;;;;;;;-146.25;100.00;52337.78;2080798;28;20049;-82
2023/07/28 04:21:20;;;;;;;66.70;24.00;;;;;;;-146.25;100.00;52337.78;2079978;28;22508;-82
2023/07/28 04:22:22;;;;;;;72.13;23.77;;;;;;;-146.25;100.00;52335.75;2080147;28;20061;-81
2023/07/28 04:23:26;;;;;;;62.10;21.17;;;;;;;-146.25;100.00;52319.53;2080547;28;20165;-79
2023/07/28 04:24:28;;;;;;;65.40;23.20;;;;;;;-146.25;100.00;52309.41;2081473;28;20088;-81
2023/07/28 04:25:30;;;;;;;57.85;21.73;;;;;;;-146.25;100.00;52341.84;2088974;28;20037;-80
2023/07/28 04:26:32;;;;;;;57.03;21.73;;;;;;;-146.25;100.00;52345.91;2079514;28;28503;-78
2023/07/28 04:27:37;;;;;;;57.33;22.00;;;;;;;-146.25;100.00;52337.78;2081365;28;20131;-79
2023/07/28 04:28:40;;;;;;;66.38;23.05;;;;;;;-146.25;100.00;52319.53;2088299;28;20142;-79
2023/07/28 04:29:41;;;;;;;67.80;22.83;;;;;;;-146.25;100.00;52325.63;2088441;28;20057;-79
2023/07/28 04:30:45;;;;;;;64.68;24.17;;;;;;;-146.25;100.00;52327.66;2088202;28;20087;-79
2023/07/28 04:32:06;;;;;;;68.43;22.45;;;;;;;-146.25;100.00;52337.78;2090955;28;20053;-79
2023/07/28 04:33:08;;;;;;;62.55;23.23;;;;;;;-146.25;100.00;52354.00;2088174;28;20184;-79
2023/07/28 04:34:13;;;;;;;57.28;22.08;;;;;;;-146.25;100.00;52311.44;2080514;28;20181;-80
2023/07/28 04:35:50;;;;;;;61.22;22.48;;;;;;;-146.25;100.00;52303.31;2070591;28;20066;-81
2023/07/28 04:36:59;;;;;;;65.53;22.52;;;;;;;-146.25;100.00;52315.47;2071334;28;20039;-80
2023/07/28 04:38:08;;;;;;;56.50;22.13;;;;;;;-146.25;100.00;52319.53;2072224;28;20041;-80
2023/07/28 04:39:22;;;;;;;62.83;22.70;;;;;;;-146.25;100.00;52319.53;2090010;28;20921;-82
2023/07/28 04:40:25;;;;;;;57.78;21.88;;;;;;;-146.25;100.00;52356.03;2087938;28;20042;-82
2023/07/28 04:41:26;;;;;;;57.60;22.52;;;;;;;-146.25;100.00;52307.38;2071730;28;20046;-81
2023/07/28 04:42:29;;;;;;;60.22;22.55;;;;;;;-146.25;100.00;52354.00;2080517;28;20811;-80
2023/07/28 04:43:31;;;;;;;65.30;22.27;;;;;;;-146.25;100.00;52339.81;2097176;28;20553;-80